createdAt,value
2023-04-07T00:00:34.031Z,2.2
2023-04-07T00:01:42.732Z,1.6
2023-04-07T00:02:51.419Z,1.3
2023-04-07T00:04:01.307Z,2.2
2023-04-07T00:05:09.723Z,2
2023-04-07T00:06:19.411Z,2
2023-04-07T00:07:29.063Z,1.8
2023-04-07T00:08:37.742Z,1.8
2023-04-07T00:09:47.389Z,1.6
2023-04-07T00:10:55.153Z,2.1
2023-04-07T00:12:05.040Z,1.9
2023-04-07T00:13:14.911Z,1.7
2023-04-07T00:14:23.629Z,1.3
2023-04-07T00:15:33.286Z,1.9
2023-04-07T00:16:42.916Z,1.7
2023-04-07T00:17:52.645Z,1.8
2023-04-07T00:19:02.373Z,2.1
2023-04-07T00:20:10.056Z,2.1
2023-04-07T00:21:19.703Z,2.4
2023-04-07T00:22:29.379Z,2.1
2023-04-07T00:23:38.095Z,1.8
2023-04-07T00:24:47.759Z,1.8
2023-04-07T00:25:56.477Z,2
2023-04-07T00:27:04.095Z,2.2
2023-04-07T00:28:13.761Z,1.9
2023-04-07T00:29:22.554Z,1.7
2023-04-07T00:30:32.156Z,1.8
2023-04-07T00:31:40.843Z,2.4
2023-04-07T00:32:50.565Z,1.4
2023-04-07T00:34:00.236Z,1.7
2023-04-07T00:35:07.934Z,1.5
2023-04-07T00:36:17.656Z,1.9
2023-04-07T00:37:27.337Z,1.5
2023-04-07T00:38:37.001Z,1.8
2023-04-07T00:39:46.775Z,1.7
2023-04-07T00:40:55.336Z,1.3
2023-04-07T00:42:04.025Z,1.2
2023-04-07T00:43:12.695Z,1.4
2023-04-07T00:44:20.379Z,1.7
2023-04-07T00:45:29.125Z,1.3
2023-04-07T00:46:38.851Z,1.9
2023-04-07T00:47:47.530Z,1.4
2023-04-07T00:48:57.137Z,1.5
2023-04-07T00:50:06.823Z,1.7
2023-04-07T00:51:16.496Z,1.3
2023-04-07T00:52:26.176Z,1.4
2023-04-07T00:53:35.851Z,2.2
2023-04-07T00:54:45.544Z,1.7
2023-04-07T00:55:55.223Z,1.7
2023-04-07T00:57:03.851Z,1.9
2023-04-07T00:58:12.510Z,1.5
2023-04-07T00:59:22.239Z,1.6
2023-04-07T01:00:31.964Z,1.7
2023-04-07T01:01:40.708Z,2
2023-04-07T01:02:50.377Z,1.8
2023-04-07T01:03:59.147Z,1.7
2023-04-07T01:05:08.740Z,1.8
2023-04-07T01:06:17.365Z,1.8
2023-04-07T01:07:25.019Z,1.8
2023-04-07T01:08:34.706Z,2
2023-04-07T01:09:43.399Z,2
2023-04-07T01:10:52.108Z,1.9
2023-04-07T01:12:01.876Z,2.2
2023-04-07T01:13:09.534Z,1.5
2023-04-07T01:14:19.225Z,1.5
2023-04-07T01:15:27.923Z,1.5
2023-04-07T01:16:35.737Z,1.8
2023-04-07T01:17:45.309Z,1.4
2023-04-07T01:18:52.953Z,1.9
2023-04-07T01:20:01.678Z,1.8
2023-04-07T01:21:11.336Z,1.7
2023-04-07T01:22:21.158Z,1.9
2023-04-07T01:23:30.808Z,1.7
2023-04-07T01:24:39.526Z,1.9
2023-04-07T01:25:49.263Z,2
2023-04-07T01:26:59.932Z,1.8
2023-04-07T01:28:08.637Z,1.6
2023-04-07T01:29:16.375Z,1.6
2023-04-07T01:30:26.080Z,1.6
2023-04-07T01:31:34.819Z,1.1
2023-04-07T01:32:44.510Z,1.7
2023-04-07T01:33:54.379Z,1.7
2023-04-07T01:35:01.844Z,1.4
2023-04-07T01:36:11.520Z,1.7
2023-04-07T01:37:20.183Z,1.6
2023-04-07T01:38:30.038Z,1.6
2023-04-07T01:39:39.732Z,1.5
2023-04-07T01:40:47.374Z,1.5
2023-04-07T01:41:57.024Z,1.4
2023-04-07T01:43:05.689Z,1.6
2023-04-07T01:44:14.371Z,1.3
2023-04-07T01:45:24.029Z,1.7
2023-04-07T01:46:31.695Z,1.6
2023-04-07T01:47:40.502Z,1.3
2023-04-07T01:48:50.135Z,1.6
2023-04-07T01:49:59.903Z,1.4
2023-04-07T01:51:09.578Z,1.7
2023-04-07T01:52:19.256Z,1.9
2023-04-07T01:53:27.030Z,1.5
2023-04-07T01:54:36.786Z,1.5
2023-04-07T01:55:45.575Z,1.5
2023-04-07T01:56:55.259Z,1.2
2023-04-07T01:58:04.953Z,1.4
2023-04-07T01:59:13.602Z,1.1
2023-04-07T02:00:23.330Z,1.4
2023-04-07T02:01:32.168Z,1.5
2023-04-07T02:02:40.816Z,1.1
2023-04-07T02:03:50.559Z,1.3
2023-04-07T02:04:58.140Z,1.2
2023-04-07T02:06:06.797Z,1.1
2023-04-07T02:07:16.484Z,1.1
2023-04-07T02:08:24.231Z,1.3
2023-04-07T02:09:33.918Z,1.4
2023-04-07T02:10:43.605Z,1.3
2023-04-07T02:11:53.321Z,1.4
2023-04-07T02:13:02.974Z,1
2023-04-07T02:14:12.802Z,1
2023-04-07T02:15:21.599Z,1.2
2023-04-07T02:16:31.343Z,1.3
2023-04-07T02:17:40.049Z,1.6
2023-04-07T02:18:49.689Z,1.1
2023-04-07T02:19:58.399Z,1.5
2023-04-07T02:21:06.051Z,1.3
2023-04-07T02:22:15.780Z,1.1
2023-04-07T02:23:24.441Z,1.4
2023-04-07T02:24:34.124Z,1.2
2023-04-07T02:25:43.805Z,1.5
2023-04-07T02:26:52.473Z,1.6
2023-04-07T02:28:02.138Z,1.4
2023-04-07T02:29:10.782Z,1.5
2023-04-07T02:30:20.508Z,1.6
2023-04-07T02:31:30.217Z,1.1
2023-04-07T02:32:37.935Z,1.8
2023-04-07T02:33:46.490Z,1.2
2023-04-07T02:34:56.180Z,1
2023-04-07T02:36:04.860Z,1.5
2023-04-07T02:37:13.552Z,1.3
2023-04-07T02:38:23.160Z,1.4
2023-04-07T02:39:31.818Z,1.3
2023-04-07T02:40:41.497Z,1.4
2023-04-07T02:41:51.155Z,1.7
2023-04-07T02:43:00.851Z,1.2
2023-04-07T02:44:10.522Z,1.4
2023-04-07T02:45:19.189Z,1.6
2023-04-07T02:46:26.964Z,1.3
2023-04-07T02:47:35.613Z,1.5
2023-04-07T02:48:44.246Z,1.7
2023-04-07T02:49:52.877Z,1.7
2023-04-07T02:51:02.573Z,1.2
2023-04-07T02:52:11.339Z,1.3
2023-04-07T02:53:21.015Z,1.3
2023-04-07T02:54:30.718Z,1.1
2023-04-07T02:55:38.500Z,0.8
2023-04-07T02:56:47.267Z,0.9
2023-04-07T02:57:55.051Z,1.1
2023-04-07T02:59:03.792Z,1.5
2023-04-07T03:00:13.476Z,1.7
2023-04-07T03:01:22.276Z,2.1
2023-04-07T03:02:32.100Z,1.4
2023-04-07T03:03:40.895Z,1.8
2023-04-07T03:04:49.436Z,2.2
2023-04-07T03:05:59.104Z,2.5
2023-04-07T03:07:07.796Z,1.5
2023-04-07T03:08:19.078Z,2.4
2023-04-07T03:09:27.654Z,1.9
2023-04-07T03:10:36.446Z,2.1
2023-04-07T03:11:46.131Z,2.6
2023-04-07T03:12:55.816Z,2.4
2023-04-07T03:14:03.498Z,2.4
2023-04-07T03:15:13.172Z,2.6
2023-04-07T03:16:21.904Z,2.6
2023-04-07T03:17:30.587Z,2.4
2023-04-07T03:18:40.229Z,2.6
2023-04-07T03:19:48.919Z,2.2
2023-04-07T03:20:58.637Z,1
2023-04-07T03:22:07.552Z,2.2
2023-04-07T03:23:17.247Z,2.4
2023-04-07T03:24:26.923Z,2.6
2023-04-07T03:25:34.666Z,1.6
2023-04-07T03:26:43.404Z,1.9
2023-04-07T03:27:53.069Z,1.6
2023-04-07T03:29:00.753Z,2.3
2023-04-07T03:30:10.454Z,1.4
2023-04-07T03:31:20.572Z,1.5
2023-04-07T03:32:28.206Z,1.9
2023-04-07T03:33:37.862Z,1.5
2023-04-07T03:34:45.539Z,1.7
2023-04-07T03:35:55.234Z,1.5
2023-04-07T03:37:04.935Z,1.4
2023-04-07T03:38:14.590Z,1.6
2023-04-07T03:39:24.327Z,1.5
2023-04-07T03:40:33.039Z,2.4
2023-04-07T03:41:40.708Z,1.9
2023-04-07T03:42:50.364Z,1.5
2023-04-07T03:43:59.035Z,1.7
2023-04-07T03:45:08.704Z,1.6
2023-04-07T03:46:17.515Z,1.9
2023-04-07T03:47:26.186Z,2.1
2023-04-07T03:48:35.838Z,1.8
2023-04-07T03:49:44.560Z,1.5
2023-04-07T03:50:53.340Z,1.3
2023-04-07T03:52:03.065Z,1.3
2023-04-07T03:53:11.761Z,1.5
2023-04-07T03:54:20.416Z,1.1
2023-04-07T03:55:30.169Z,1.6
2023-04-07T03:56:39.889Z,1.3
2023-04-07T03:57:49.611Z,1.1
2023-04-07T03:58:59.309Z,1.1
2023-04-07T04:00:06.977Z,1.2
2023-04-07T04:01:16.710Z,1
2023-04-07T04:02:25.464Z,1.5
2023-04-07T04:03:35.240Z,1.1
2023-04-07T04:04:43.804Z,1.2
2023-04-07T04:05:52.586Z,1.3
2023-04-07T04:07:02.231Z,1.3
2023-04-07T04:08:10.881Z,1.1
2023-04-07T04:09:18.609Z,1.3
2023-04-07T04:10:28.255Z,1.1
2023-04-07T04:11:35.976Z,1.1
2023-04-07T04:12:45.712Z,1.2
2023-04-07T04:13:55.577Z,1.2
2023-04-07T04:15:03.190Z,0.9
2023-04-07T04:16:15.085Z,1.3
2023-04-07T04:17:23.648Z,1.2
2023-04-07T04:18:32.357Z,0.9
2023-04-07T04:19:42.082Z,1.1
2023-04-07T04:20:49.744Z,1.1
2023-04-07T04:21:59.422Z,1
2023-04-07T04:23:09.110Z,1.3
2023-04-07T04:24:16.764Z,1.3
2023-04-07T04:25:26.479Z,1
2023-04-07T04:26:35.208Z,1.3
2023-04-07T04:27:42.861Z,1.2
2023-04-07T04:28:52.531Z,1.3
2023-04-07T04:30:01.208Z,1.5
2023-04-07T04:31:12.042Z,1
2023-04-07T04:32:20.884Z,1.3
2023-04-07T04:33:28.481Z,1.2
2023-04-07T04:34:38.143Z,1.2
2023-04-07T04:35:47.824Z,1.1
2023-04-07T04:36:55.614Z,1.1
2023-04-07T04:38:05.265Z,1.2
2023-04-07T04:39:13.927Z,0.9
2023-04-07T04:40:22.682Z,1.1
2023-04-07T04:41:32.394Z,1.2
2023-04-07T04:42:40.027Z,1.1
2023-04-07T04:43:48.720Z,1.3
2023-04-07T04:44:58.515Z,1.3
2023-04-07T04:46:08.205Z,0.9
2023-04-07T04:47:16.919Z,0.9
2023-04-07T04:48:26.516Z,0.8
2023-04-07T04:49:33.220Z,1.1
2023-04-07T04:50:42.888Z,1.2
2023-04-07T04:51:52.585Z,1.1
2023-04-07T04:53:01.309Z,1.2
2023-04-07T04:54:10.999Z,0.8
2023-04-07T04:55:19.726Z,1
2023-04-07T04:56:29.399Z,1.6
2023-04-07T04:57:39.095Z,1.3
2023-04-07T04:58:48.783Z,1.4
2023-04-07T04:59:58.453Z,1.2
2023-04-07T05:01:08.161Z,1.3
2023-04-07T05:02:15.872Z,0.8
2023-04-07T05:03:25.530Z,1.2
2023-04-07T05:04:34.283Z,0.7
2023-04-07T05:05:43.813Z,1.3
2023-04-07T05:06:53.560Z,1.4
2023-04-07T05:08:03.219Z,1.1
2023-04-07T05:09:12.882Z,1.3
2023-04-07T05:10:21.608Z,1.2
2023-04-07T05:11:30.343Z,0.8
2023-04-07T05:12:39.051Z,1.1
2023-04-07T05:13:47.736Z,1.6
2023-04-07T05:14:56.379Z,1.3
2023-04-07T05:16:06.056Z,1.4
2023-04-07T05:17:13.729Z,1.4
2023-04-07T05:18:22.403Z,1.1
2023-04-07T05:19:32.086Z,1.5
2023-04-07T05:20:39.728Z,1.1
2023-04-07T05:21:49.471Z,1.3
2023-04-07T05:22:58.175Z,1.2
2023-04-07T05:24:09.321Z,0.9
2023-04-07T05:25:18.525Z,1.2
2023-04-07T05:26:28.168Z,1.2
2023-04-07T05:27:37.873Z,1.3
2023-04-07T05:28:47.525Z,1.2
2023-04-07T05:29:55.246Z,1.5
2023-04-07T05:31:07.059Z,1
2023-04-07T05:32:13.543Z,1.4
2023-04-07T05:33:22.192Z,1.2
2023-04-07T05:34:30.934Z,1.5
2023-04-07T05:35:38.608Z,1.5
2023-04-07T05:36:48.308Z,2
2023-04-07T05:37:58.021Z,1.2
2023-04-07T05:39:05.696Z,1.3
2023-04-07T05:40:15.390Z,1.2
2023-04-07T05:41:23.027Z,1.5
2023-04-07T05:42:32.756Z,1.2
2023-04-07T05:43:41.440Z,1
2023-04-07T05:44:50.110Z,1.4
2023-04-07T05:45:59.838Z,1.4
2023-04-07T05:47:09.520Z,1.3
2023-04-07T05:48:18.260Z,1.3
2023-04-07T05:49:27.917Z,0.9
2023-04-07T05:50:36.579Z,1.4
2023-04-07T05:52:55.038Z,1.8
2023-04-07T05:54:03.733Z,1.1
2023-04-07T05:55:14.418Z,0.9
2023-04-07T05:56:24.073Z,1.6
2023-04-07T05:57:33.754Z,1.2
2023-04-07T05:58:43.439Z,1.4
2023-04-07T05:59:51.125Z,1.3
2023-04-07T06:01:00.875Z,1.4
2023-04-07T06:02:10.644Z,1.2
2023-04-07T06:03:19.350Z,1.4
2023-04-07T06:04:28.940Z,1.2
2023-04-07T06:05:38.712Z,1.3
2023-04-07T06:06:47.350Z,1.2
2023-04-07T06:07:57.082Z,1
2023-04-07T06:09:06.994Z,1.5
2023-04-07T06:10:15.535Z,1.3
2023-04-07T06:11:25.394Z,1.5
2023-04-07T06:12:34.255Z,1.1
2023-04-07T06:13:44.076Z,1.5
2023-04-07T06:14:52.744Z,1.4
2023-04-07T06:16:01.365Z,1.3
2023-04-07T06:17:11.033Z,1.4
2023-04-07T06:18:18.757Z,1.6
2023-04-07T06:19:27.465Z,1.7
2023-04-07T06:20:37.122Z,1.8
2023-04-07T06:21:44.823Z,2
2023-04-07T06:22:54.565Z,2.1
2023-04-07T06:24:03.235Z,2.2
2023-04-07T06:25:11.949Z,1.9
2023-04-07T06:26:21.629Z,1.6
2023-04-07T06:27:30.400Z,1.9
2023-04-07T06:28:39.080Z,1.9
2023-04-07T06:29:48.787Z,1.9
2023-04-07T06:30:57.639Z,1.3
2023-04-07T06:32:07.355Z,1.9
2023-04-07T06:33:15.115Z,1.1
2023-04-07T06:34:23.895Z,1.5
2023-04-07T06:35:33.496Z,1
2023-04-07T06:36:41.178Z,1.5
2023-04-07T06:37:49.851Z,1.3
2023-04-07T06:38:59.530Z,1.4
2023-04-07T06:40:09.230Z,1.3
2023-04-07T06:41:18.913Z,1.3
2023-04-07T06:42:28.573Z,1.1
2023-04-07T06:43:37.324Z,1.6
2023-04-07T06:44:45.985Z,1.5
2023-04-07T06:45:55.662Z,1.5
2023-04-07T06:47:05.343Z,2.2
2023-04-07T06:48:15.019Z,2.7
2023-04-07T06:49:23.695Z,2.8
2023-04-07T06:50:32.367Z,2.8
2023-04-07T06:51:42.027Z,2.8
2023-04-07T06:52:50.701Z,2.1
2023-04-07T06:54:00.395Z,1.6
2023-04-07T06:55:10.071Z,1.5
2023-04-07T06:56:19.047Z,1.3
2023-04-07T06:57:28.709Z,1.4
2023-04-07T06:58:38.468Z,1.8
2023-04-07T06:59:46.137Z,1.6
2023-04-07T07:00:55.814Z,1.3
2023-04-07T07:02:05.078Z,1.5
2023-04-07T07:03:15.094Z,1.3
2023-04-07T07:04:24.946Z,1.6
2023-04-07T07:05:33.004Z,1.4
2023-04-07T07:06:42.795Z,1.4
2023-04-07T07:07:51.731Z,1.5
2023-04-07T07:08:59.662Z,1.4
2023-04-07T07:10:09.548Z,1.2
2023-04-07T07:11:17.453Z,1.4
2023-04-07T07:12:26.255Z,1.5
2023-04-07T07:13:35.990Z,1.4
2023-04-07T07:14:43.705Z,1.6
2023-04-07T07:15:53.435Z,1.3
2023-04-07T07:17:02.111Z,1.4
2023-04-07T07:18:09.814Z,1.8
2023-04-07T07:19:19.541Z,1.7
2023-04-07T07:20:28.300Z,1.8
2023-04-07T07:21:37.003Z,1.7
2023-04-07T07:22:46.676Z,1.6
2023-04-07T07:23:55.411Z,1.7
2023-04-07T07:25:05.103Z,1.6
2023-04-07T07:26:14.847Z,1.6
2023-04-07T07:27:23.549Z,1.7
2023-04-07T07:28:33.301Z,0.9
2023-04-07T07:29:42.023Z,1.4
2023-04-07T07:30:51.832Z,2
2023-04-07T07:32:01.470Z,3
2023-04-07T07:33:10.154Z,3.1
2023-04-07T07:34:19.903Z,2.9
2023-04-07T07:35:28.552Z,2.5
2023-04-07T07:36:38.292Z,2.9
2023-04-07T07:37:47.970Z,2.6
2023-04-07T07:38:57.718Z,2.3
2023-04-07T07:40:06.502Z,1.7
2023-04-07T07:41:16.191Z,1.8
2023-04-07T07:42:24.836Z,2.2
2023-04-07T07:43:34.557Z,2.2
2023-04-07T07:44:43.380Z,2.1
2023-04-07T07:45:51.146Z,2
2023-04-07T07:47:00.015Z,1.6
2023-04-07T07:48:08.668Z,1.2
2023-04-07T07:49:17.366Z,1.3
2023-04-07T07:50:27.038Z,1.3
2023-04-07T07:51:34.754Z,1.1
2023-04-07T07:52:44.450Z,2
2023-04-07T07:53:53.190Z,1.8
2023-04-07T07:55:01.920Z,1.9
2023-04-07T07:56:11.594Z,1.6
2023-04-07T07:57:20.348Z,1.8
2023-04-07T07:58:29.037Z,1.8
2023-04-07T07:59:38.771Z,1.2
2023-04-07T08:00:48.435Z,1.1
2023-04-07T08:01:58.133Z,1.2
2023-04-07T08:03:07.859Z,1.6
2023-04-07T08:04:16.538Z,1.4
2023-04-07T08:05:26.179Z,1.6
2023-04-07T08:06:34.867Z,1.4
2023-04-07T08:07:44.583Z,1.3
2023-04-07T08:08:54.325Z,1.3
2023-04-07T08:10:02.023Z,1.6
2023-04-07T08:11:10.718Z,1.3
2023-04-07T08:12:19.408Z,1.4
2023-04-07T08:13:27.082Z,1.4
2023-04-07T08:14:36.843Z,1.4
2023-04-07T08:15:44.566Z,1
2023-04-07T08:16:53.249Z,1
2023-04-07T08:18:02.995Z,1.1
2023-04-07T08:19:10.614Z,1.3
2023-04-07T08:20:20.302Z,1.1
2023-04-07T08:21:28.965Z,0.9
2023-04-07T08:22:38.698Z,1.6
2023-04-07T08:23:48.566Z,1.2
2023-04-07T08:24:56.101Z,0.8
2023-04-07T08:26:04.759Z,1
2023-04-07T08:27:14.478Z,1.4
2023-04-07T08:28:22.124Z,1
2023-04-07T08:29:32.384Z,0.9
2023-04-07T08:30:41.580Z,1.7
2023-04-07T08:31:49.285Z,2.7
2023-04-07T08:32:58.965Z,2.7
2023-04-07T08:34:07.913Z,4.7
2023-04-07T08:35:17.586Z,3.6
2023-04-07T08:36:27.484Z,2.7
2023-04-07T08:37:36.157Z,1.8
2023-04-07T08:38:45.992Z,1.1
2023-04-07T08:39:55.793Z,1.6
2023-04-07T08:41:04.484Z,1.4
2023-04-07T08:42:14.142Z,0.9
2023-04-07T08:43:23.857Z,1.8
2023-04-07T08:44:33.698Z,1.3
2023-04-07T08:45:43.332Z,1.2
2023-04-07T08:46:52.021Z,1
2023-04-07T08:47:59.686Z,0.7
2023-04-07T08:49:09.376Z,1
2023-04-07T08:50:19.066Z,1.2
2023-04-07T08:51:27.767Z,1
2023-04-07T08:52:37.447Z,1.3
2023-04-07T08:53:46.289Z,1.4
2023-04-07T08:54:55.822Z,1
2023-04-07T08:56:04.516Z,1.1
2023-04-07T08:57:13.193Z,1.1
2023-04-07T08:58:22.847Z,1.4
2023-04-07T08:59:31.573Z,1.5
2023-04-07T09:00:40.251Z,1.3
2023-04-07T09:01:49.963Z,1.1
2023-04-07T09:02:57.666Z,1.2
2023-04-07T09:04:07.343Z,1
2023-04-07T09:05:17.016Z,0.8
2023-04-07T09:06:25.676Z,1
2023-04-07T09:07:36.335Z,1.2
2023-04-07T09:08:45.026Z,0.8
2023-04-07T09:09:53.706Z,0.9
2023-04-07T09:11:02.409Z,0.7
2023-04-07T09:12:10.097Z,1.1
2023-04-07T09:13:19.784Z,1
2023-04-07T09:14:28.482Z,0.8
2023-04-07T09:15:38.580Z,0.7
2023-04-07T09:16:47.933Z,1.1
2023-04-07T09:17:55.557Z,0.7
2023-04-07T09:19:05.221Z,0.9
2023-04-07T09:20:14.951Z,1
2023-04-07T09:21:24.612Z,0.8
2023-04-07T09:22:34.307Z,0.9
2023-04-07T09:23:43.978Z,1.3
2023-04-07T09:24:52.074Z,1.2
2023-04-07T09:26:01.816Z,1.5
2023-04-07T09:27:10.500Z,1.6
2023-04-07T09:28:20.177Z,1
2023-04-07T09:29:29.881Z,0.6
2023-04-07T09:30:39.592Z,0.9
2023-04-07T09:31:49.324Z,0.7
2023-04-07T09:32:57.965Z,0.8
2023-04-07T09:34:06.662Z,1.2
2023-04-07T09:35:16.301Z,0.6
2023-04-07T09:36:24.973Z,1
2023-04-07T09:37:32.644Z,0.7
2023-04-07T09:38:42.380Z,0.7
2023-04-07T09:39:52.091Z,1
2023-04-07T09:41:01.732Z,0.9
2023-04-07T09:42:10.381Z,1
2023-04-07T09:43:19.097Z,0.8
2023-04-07T09:44:28.752Z,0.6
2023-04-07T09:45:38.492Z,0.7
2023-04-07T09:46:47.164Z,0.7
2023-04-07T09:47:57.858Z,0.9
2023-04-07T09:49:06.484Z,0.8
2023-04-07T09:50:16.164Z,0.9
2023-04-07T09:51:24.831Z,0.9
2023-04-07T09:52:32.507Z,1.1
2023-04-07T09:53:41.145Z,0.5
2023-04-07T09:54:51.885Z,1.1
2023-04-07T09:56:00.570Z,1
2023-04-07T09:57:10.214Z,0.7
2023-04-07T09:58:18.963Z,0.9
2023-04-07T09:59:28.577Z,0.9
2023-04-07T10:00:37.267Z,0.6
2023-04-07T10:01:45.121Z,0.7
2023-04-07T10:02:54.879Z,0.6
2023-04-07T10:04:03.441Z,0.5
2023-04-07T10:05:13.092Z,1
2023-04-07T10:06:22.800Z,0.6
2023-04-07T10:07:31.546Z,0.7
2023-04-07T10:08:41.218Z,0.9
2023-04-07T10:09:50.920Z,0.7
2023-04-07T10:10:59.667Z,0.7
2023-04-07T10:12:09.389Z,0.7
2023-04-07T10:13:19.054Z,0.6
2023-04-07T10:14:27.774Z,1
2023-04-07T10:15:37.443Z,0.5
2023-04-07T10:16:47.174Z,0.7
2023-04-07T10:17:57.035Z,0.6
2023-04-07T10:19:05.563Z,0.7
2023-04-07T10:20:14.251Z,0.9
2023-04-07T10:21:22.926Z,0.7
2023-04-07T10:22:30.634Z,0.4
2023-04-07T10:23:39.330Z,0.8
2023-04-07T10:24:49.076Z,0.5
2023-04-07T10:25:57.827Z,0.7
2023-04-07T10:27:07.515Z,0.6
2023-04-07T10:28:17.180Z,0.5
2023-04-07T10:29:25.838Z,0.5
2023-04-07T10:30:35.509Z,0.6
2023-04-07T10:31:45.201Z,0.6
2023-04-07T10:32:54.887Z,0.4
2023-04-07T10:34:04.670Z,0.7
2023-04-07T10:35:13.373Z,0.4
2023-04-07T10:36:23.032Z,0.8
2023-04-07T10:37:31.715Z,0.6
2023-04-07T10:38:40.389Z,0.6
2023-04-07T10:39:49.134Z,0.7
2023-04-07T10:40:58.803Z,0.5
2023-04-07T10:42:06.497Z,0.5
2023-04-07T10:43:16.158Z,0.5
2023-04-07T10:44:24.822Z,0.5
2023-04-07T10:45:33.590Z,0.6
2023-04-07T10:46:43.269Z,0.4
2023-04-07T10:47:51.175Z,0.7
2023-04-07T10:49:00.814Z,0.5
2023-04-07T10:50:10.495Z,1.6
2023-04-07T10:51:18.209Z,0.5
2023-04-07T10:52:27.867Z,0.6
2023-04-07T10:53:36.551Z,0.4
2023-04-07T10:54:45.481Z,0.4
2023-04-07T10:55:55.298Z,0.5
2023-04-07T10:57:04.078Z,0.3
2023-04-07T10:58:12.865Z,0.4
2023-04-07T10:59:22.691Z,0.6
2023-04-07T11:00:31.490Z,0.5
2023-04-07T11:01:41.225Z,0.3
2023-04-07T11:02:50.074Z,0.5
2023-04-07T11:03:58.646Z,0.5
2023-04-07T11:05:08.277Z,0.5
2023-04-07T11:06:16.014Z,0.7
2023-04-07T11:07:24.778Z,0.6
2023-04-07T11:08:34.670Z,0.6
2023-04-07T11:09:44.397Z,0.9
2023-04-07T11:10:54.152Z,0.7
2023-04-07T11:12:03.844Z,0.8
2023-04-07T11:13:13.616Z,1
2023-04-07T11:14:23.297Z,0.2
2023-04-07T11:15:32.117Z,0.5
2023-04-07T11:16:41.889Z,0.8
2023-04-07T11:17:51.716Z,0.6
2023-04-07T11:19:00.447Z,0.6
2023-04-07T11:20:10.168Z,0.7
2023-04-07T11:21:19.018Z,0.7
2023-04-07T11:22:30.158Z,0.8
2023-04-07T11:23:39.569Z,0.6
2023-04-07T11:24:48.276Z,1
2023-04-07T11:25:56.968Z,1
2023-04-07T11:27:06.731Z,0.9
2023-04-07T11:28:15.562Z,0.8
2023-04-07T11:29:25.280Z,0.9
2023-04-07T11:30:35.077Z,0.8
2023-04-07T11:31:43.912Z,0.7
2023-04-07T11:32:53.682Z,0.6
2023-04-07T11:34:01.341Z,0.7
2023-04-07T11:35:11.052Z,0.7
2023-04-07T11:36:20.801Z,0.7
2023-04-07T11:37:29.501Z,0.6
2023-04-07T11:38:39.217Z,0.6
2023-04-07T11:39:47.945Z,0.7
2023-04-07T11:40:56.725Z,0.3
2023-04-07T11:42:06.414Z,0.7
2023-04-07T11:43:14.258Z,0.5
2023-04-07T11:44:23.928Z,0.5
2023-04-07T11:45:33.597Z,0.7
2023-04-07T11:46:41.469Z,0.5
2023-04-07T11:47:51.144Z,0.4
2023-04-07T11:49:00.754Z,0.6
2023-04-07T11:50:08.440Z,0.6
2023-04-07T11:51:18.184Z,0.7
2023-04-07T11:52:26.860Z,0.4
2023-04-07T11:53:36.603Z,0.6
2023-04-07T11:54:46.333Z,0.9
2023-04-07T11:55:53.980Z,0.7
2023-04-07T11:57:03.682Z,0.6
2023-04-07T11:58:12.417Z,0.9
2023-04-07T11:59:21.162Z,0.6
2023-04-07T12:00:30.869Z,0.6
2023-04-07T12:01:38.682Z,0.7
2023-04-07T12:02:48.517Z,0.7
2023-04-07T12:03:58.111Z,0.8
2023-04-07T12:05:05.753Z,0.9
2023-04-07T12:06:14.393Z,0.6
2023-04-07T12:07:24.598Z,0.7
2023-04-07T12:08:32.807Z,0.5
2023-04-07T12:09:43.460Z,0.6
2023-04-07T12:10:51.148Z,0.8
2023-04-07T12:11:59.851Z,0.6
2023-04-07T12:13:09.494Z,0.6
2023-04-07T12:14:18.345Z,0.6
2023-04-07T12:15:28.043Z,0.5
2023-04-07T12:16:37.816Z,0.3
2023-04-07T12:17:45.518Z,0.6
2023-04-07T12:18:55.145Z,0.7
2023-04-07T12:20:04.812Z,0.5
2023-04-07T12:21:13.508Z,0.5
2023-04-07T12:22:23.402Z,0.7
2023-04-07T12:23:33.097Z,0.5
2023-04-07T12:24:42.946Z,0.6
2023-04-07T12:25:52.766Z,0.8
2023-04-07T12:27:01.850Z,0.6
2023-04-07T12:28:11.692Z,0.6
2023-04-07T12:29:21.464Z,0.6
2023-04-07T12:30:30.210Z,0.6
2023-04-07T12:31:39.958Z,0.7
2023-04-07T12:32:48.649Z,0.5
2023-04-07T12:33:58.352Z,0.5
2023-04-07T12:35:08.032Z,0.8
2023-04-07T12:36:16.675Z,0.8
2023-04-07T12:37:25.378Z,0.4
2023-04-07T12:38:33.028Z,0.4
2023-04-07T12:39:41.710Z,0.7
2023-04-07T12:40:51.436Z,0.4
2023-04-07T12:42:00.144Z,0.4
2023-04-07T12:43:08.883Z,0.6
2023-04-07T12:44:18.552Z,0.9
2023-04-07T12:45:26.219Z,1
2023-04-07T12:46:35.905Z,0.9
2023-04-07T12:47:45.657Z,0.8
2023-04-07T12:48:54.337Z,0.9
2023-04-07T12:50:04.042Z,0.7
2023-04-07T12:51:13.817Z,0.8
2023-04-07T12:52:22.540Z,0.5
2023-04-07T12:53:32.262Z,0.5
2023-04-07T12:54:39.907Z,0.5
2023-04-07T12:55:50.443Z,0.5
2023-04-07T12:56:59.329Z,1
2023-04-07T12:58:08.004Z,1.3
2023-04-07T12:59:17.711Z,1
2023-04-07T13:00:26.356Z,0.8
2023-04-07T13:01:34.095Z,1
2023-04-07T13:02:43.865Z,0.6
2023-04-07T13:03:52.778Z,0.9
2023-04-07T13:05:01.198Z,0.8
2023-04-07T13:06:10.909Z,0.6
2023-04-07T13:07:20.581Z,1
2023-04-07T13:08:30.278Z,0.9
2023-04-07T13:09:38.949Z,1.2
2023-04-07T13:10:48.604Z,0.9
2023-04-07T13:11:58.262Z,0.8
2023-04-07T13:13:05.996Z,0.7
2023-04-07T13:14:15.626Z,0.9
2023-04-07T13:15:25.301Z,1.1
2023-04-07T13:16:32.994Z,0.9
2023-04-07T13:17:42.672Z,0.8
2023-04-07T13:18:52.352Z,1
2023-04-07T13:20:00.036Z,1
2023-04-07T13:21:27.330Z,1.1
2023-04-07T13:22:21.954Z,0.9
2023-04-07T13:23:36.197Z,1.1
2023-04-07T13:24:40.716Z,1.3
2023-04-07T13:25:50.401Z,1.1
2023-04-07T13:27:00.165Z,1
2023-04-07T13:28:09.879Z,0.6
2023-04-07T13:29:18.601Z,1
2023-04-07T13:30:28.353Z,1.1
2023-04-07T13:31:36.964Z,1
2023-04-07T13:32:46.674Z,1.2
2023-04-07T13:33:56.409Z,1
2023-04-07T13:35:04.092Z,1
2023-04-07T13:36:13.814Z,0.8
2023-04-07T13:37:22.564Z,1.3
2023-04-07T13:38:30.380Z,1.3
2023-04-07T13:39:39.093Z,1.2
2023-04-07T13:40:46.776Z,1.4
2023-04-07T13:41:56.458Z,1.3
2023-04-07T13:43:06.154Z,1.5
2023-04-07T13:44:14.836Z,1
2023-04-07T13:45:24.542Z,1
2023-04-07T13:46:34.323Z,1
2023-04-07T13:47:43.131Z,0.8
2023-04-07T13:48:52.804Z,1.4
2023-04-07T13:50:00.512Z,1
2023-04-07T13:51:09.200Z,0.8
2023-04-07T13:52:18.859Z,1.1
2023-04-07T13:53:27.599Z,0.9
2023-04-07T13:54:37.381Z,1.1
2023-04-07T13:55:47.221Z,1
2023-04-07T13:56:55.967Z,1
2023-04-07T13:58:05.830Z,1
2023-04-07T13:59:14.496Z,1.1
2023-04-07T14:00:24.192Z,1.2
2023-04-07T14:01:33.896Z,1.1
2023-04-07T14:02:42.652Z,0.8
2023-04-07T14:03:52.744Z,0.8
2023-04-07T14:05:00.982Z,0.8
2023-04-07T14:06:09.673Z,0.9
2023-04-07T14:07:19.507Z,0.7
2023-04-07T14:08:29.476Z,1
2023-04-07T14:09:38.234Z,1.2
2023-04-07T14:10:47.904Z,1
2023-04-07T14:11:56.585Z,1.1
2023-04-07T14:13:06.270Z,0.8
2023-04-07T14:14:15.949Z,0.9
2023-04-07T14:15:24.606Z,1.2
2023-04-07T14:16:34.348Z,1.4
2023-04-07T14:17:43.038Z,1.4
2023-04-07T14:18:50.793Z,1.6
2023-04-07T14:20:00.499Z,1.4
2023-04-07T14:21:10.300Z,1.6
2023-04-07T14:22:20.003Z,1.7
2023-04-07T14:23:36.404Z,1.5
2023-04-07T14:24:40.347Z,1.6
2023-04-07T14:25:49.996Z,1.1
2023-04-07T14:26:58.680Z,1.1
2023-04-07T14:28:05.436Z,1.5
2023-04-07T14:29:15.103Z,1.5
2023-04-07T14:30:22.826Z,1.9
2023-04-07T14:31:32.598Z,0.9
2023-04-07T14:32:42.267Z,1.2
2023-04-07T14:33:52.174Z,1.2
2023-04-07T14:35:00.765Z,1.1
2023-04-07T14:36:10.458Z,1.1
2023-04-07T14:37:19.090Z,1.4
2023-04-07T14:38:27.791Z,1.5
2023-04-07T14:39:37.477Z,1.1
2023-04-07T14:40:45.198Z,1.1
2023-04-07T14:41:54.912Z,1.4
2023-04-07T14:43:07.112Z,1.2
2023-04-07T14:44:14.691Z,0.7
2023-04-07T14:45:24.320Z,1
2023-04-07T14:46:32.174Z,0.9
2023-04-07T14:47:41.892Z,0.9
2023-04-07T14:48:51.825Z,0.7
2023-04-07T14:50:00.249Z,0.7
2023-04-07T14:51:10.164Z,1.2
2023-04-07T14:52:18.794Z,0.7
2023-04-07T14:53:26.622Z,1.3
2023-04-07T14:54:36.384Z,1.1
2023-04-07T14:55:46.113Z,1.3
2023-04-07T14:56:54.913Z,1.2
2023-04-07T14:58:04.679Z,0.8
2023-04-07T14:59:13.420Z,0.5
2023-04-07T15:00:23.109Z,0.8
2023-04-07T15:01:31.889Z,0.8
2023-04-07T15:02:40.800Z,0.5
2023-04-07T15:03:50.612Z,1.1
2023-04-07T15:04:58.142Z,1
2023-04-07T15:06:07.848Z,1
2023-04-07T15:07:17.550Z,0.9
2023-04-07T15:08:27.912Z,0.8
2023-04-07T15:09:37.596Z,0.9
2023-04-07T15:10:47.305Z,0.8
2023-04-07T15:11:54.943Z,0.7
2023-04-07T15:13:04.628Z,0.7
2023-04-07T15:14:13.331Z,0.9
2023-04-07T15:15:22.030Z,0.7
2023-04-07T15:16:31.678Z,0.7
2023-04-07T15:17:44.213Z,1.1
2023-04-07T15:18:51.969Z,0.8
2023-04-07T15:20:01.658Z,0.6
2023-04-07T15:21:11.320Z,0.9
2023-04-07T15:22:21.016Z,0.8
2023-04-07T15:23:30.699Z,1
2023-04-07T15:24:39.394Z,0.7
2023-04-07T15:25:49.085Z,0.7
2023-04-07T15:26:57.811Z,0.7
2023-04-07T15:28:07.489Z,0.9
2023-04-07T15:29:16.172Z,0.8
2023-04-07T15:30:25.934Z,1.1
2023-04-07T15:31:35.615Z,1
2023-04-07T15:32:44.295Z,1
2023-04-07T15:33:53.939Z,0.9
2023-04-07T15:35:03.623Z,0.9
2023-04-07T15:36:12.309Z,1.5
2023-04-07T15:37:21.923Z,0.7
2023-04-07T15:38:30.691Z,1
2023-04-07T15:39:39.358Z,0.7
2023-04-07T15:40:49.085Z,0.8
2023-04-07T15:41:57.752Z,0.5
2023-04-07T15:43:08.414Z,0.8
2023-04-07T15:44:18.127Z,1.1
2023-04-07T15:45:25.883Z,0.6
2023-04-07T15:46:35.498Z,1
2023-04-07T15:47:45.184Z,0.9
2023-04-07T15:48:54.863Z,1.1
2023-04-07T15:50:04.576Z,0.9
2023-04-07T15:51:13.273Z,0.8
2023-04-07T15:52:21.950Z,1
2023-04-07T15:53:31.622Z,0.7
2023-04-07T15:54:41.343Z,1
2023-04-07T15:55:51.006Z,0.9
2023-04-07T15:57:00.743Z,0.8
2023-04-07T15:58:07.461Z,0.9
2023-04-07T15:59:17.232Z,0.8